createdAt,value
2022-12-18T00:02:18.710Z,-3.13
2022-12-18T00:04:48.162Z,-3.24
2022-12-18T00:07:17.106Z,-3.31
2022-12-18T00:09:46.388Z,-3.28
2022-12-18T00:14:51.465Z,-3.32
2022-12-18T00:17:20.369Z,-3.48
2022-12-18T00:19:49.692Z,-3.46
2022-12-18T00:22:18.647Z,-3.52
2022-12-18T00:24:47.876Z,-3.63
2022-12-18T00:27:18.179Z,-3.61
2022-12-18T00:29:47.501Z,-3.63
2022-12-18T00:32:16.451Z,-3.69
2022-12-18T00:34:45.811Z,-3.79
2022-12-18T00:37:19.874Z,-3.83
2022-12-18T00:39:53.713Z,-3.81
2022-12-18T00:42:41.648Z,-3.87
2022-12-18T00:45:13.151Z,-3.89
2022-12-18T00:47:42.606Z,-3.99
2022-12-18T00:50:12.604Z,-3.91
2022-12-18T00:52:43.633Z,-3.90
2022-12-18T00:55:13.788Z,-4.03
2022-12-18T00:57:44.170Z,-4.05
2022-12-18T01:00:17.151Z,-4.06
2022-12-18T01:02:46.351Z,-4.00
2022-12-18T01:05:16.775Z,-4.07
2022-12-18T01:07:45.823Z,-4.04
2022-12-18T01:10:16.219Z,-4.16
2022-12-18T01:12:46.696Z,-4.07
2022-12-18T01:15:17.084Z,-4.10
2022-12-18T01:17:46.106Z,-4.05
2022-12-18T01:20:16.006Z,-4.01
2022-12-18T01:22:45.084Z,-4.01
2022-12-18T01:25:14.377Z,-3.99
2022-12-18T01:27:43.380Z,-3.96
2022-12-18T01:30:14.716Z,-3.91
2022-12-18T01:32:43.680Z,-3.89
2022-12-18T01:35:12.925Z,-3.84
2022-12-18T01:37:42.134Z,-3.78
2022-12-18T01:40:12.300Z,-3.77
2022-12-18T01:42:41.716Z,-3.81
2022-12-18T01:45:28.862Z,-3.75
2022-12-18T01:48:00.961Z,-3.75
2022-12-18T01:50:35.435Z,-3.70
2022-12-18T01:53:08.951Z,-3.67
2022-12-18T01:55:42.014Z,-3.59
2022-12-18T01:58:12.517Z,-3.53
2022-12-18T02:00:43.779Z,-3.47
2022-12-18T02:03:14.460Z,-3.42
2022-12-18T02:05:50.021Z,-3.39
2022-12-18T02:08:27.126Z,-3.37
2022-12-18T02:11:06.606Z,-3.35
2022-12-18T02:13:43.105Z,-3.27
2022-12-18T02:16:22.214Z,-3.20
2022-12-18T02:18:57.568Z,-3.18
2022-12-18T02:21:36.345Z,-3.16
2022-12-18T02:24:23.010Z,-3.12
2022-12-18T02:26:58.852Z,-3.06
2022-12-18T02:29:35.141Z,-3.01
2022-12-18T02:32:08.376Z,-3.06
2022-12-18T02:34:40.819Z,-2.96
2022-12-18T02:37:18.712Z,-2.95
2022-12-18T02:39:50.932Z,-2.85
2022-12-18T02:42:22.695Z,-2.78
2022-12-18T02:44:56.462Z,-2.77
2022-12-18T02:47:33.408Z,-2.73
2022-12-18T02:50:13.656Z,-2.70
2022-12-18T02:52:55.006Z,-2.69
2022-12-18T02:55:36.329Z,-2.75
2022-12-18T02:58:19.030Z,-2.70
2022-12-18T03:00:57.079Z,-2.68
2022-12-18T03:03:32.399Z,-2.63
2022-12-18T03:06:05.903Z,-2.66
2022-12-18T03:08:41.475Z,-2.66
2022-12-18T03:11:12.936Z,-2.70
2022-12-18T03:13:49.017Z,-2.68
2022-12-18T03:16:25.007Z,-2.67
2022-12-18T03:18:58.336Z,-2.71
2022-12-18T03:21:31.910Z,-2.61
2022-12-18T03:24:02.521Z,-2.61
2022-12-18T03:26:33.519Z,-2.61
2022-12-18T03:29:11.720Z,-2.58
2022-12-18T03:31:43.840Z,-2.58
2022-12-18T03:34:18.290Z,-2.65
2022-12-18T03:36:49.515Z,-2.60
2022-12-18T03:39:19.062Z,-2.58
2022-12-18T03:42:03.963Z,-2.56
2022-12-18T03:44:46.087Z,-2.56
2022-12-18T03:47:21.588Z,-2.60
2022-12-18T03:49:59.924Z,-2.57
2022-12-18T03:52:38.524Z,-2.54
2022-12-18T03:55:11.922Z,-2.54
2022-12-18T03:57:44.702Z,-2.54
2022-12-18T04:00:18.959Z,-2.51
2022-12-18T04:02:59.234Z,-2.52
2022-12-18T04:05:38.067Z,-2.54
2022-12-18T04:08:08.633Z,-2.57
2022-12-18T04:10:41.431Z,-2.52
2022-12-18T04:13:11.119Z,-2.49
2022-12-18T04:15:42.666Z,-2.53
2022-12-18T04:18:16.234Z,-2.56
2022-12-18T04:20:46.586Z,-2.55
2022-12-18T04:23:15.676Z,-2.54
2022-12-18T04:25:44.975Z,-2.55
2022-12-18T04:28:19.527Z,-2.60
2022-12-18T04:30:51.959Z,-2.55
2022-12-18T04:33:22.653Z,-2.60
2022-12-18T04:35:52.796Z,-2.61
2022-12-18T04:38:21.940Z,-2.76
2022-12-18T04:40:58.257Z,-2.77
2022-12-18T04:43:29.608Z,-2.70
2022-12-18T04:46:06.084Z,-2.72
2022-12-18T04:48:35.698Z,-2.70
2022-12-18T04:51:05.891Z,-2.65
2022-12-18T04:53:35.123Z,-2.67
2022-12-18T04:56:08.888Z,-2.63
2022-12-18T04:58:38.403Z,-2.73
2022-12-18T05:01:09.861Z,-2.72
2022-12-18T05:03:40.115Z,-2.67
2022-12-18T05:06:11.046Z,-2.72
2022-12-18T05:08:40.565Z,-2.75
2022-12-18T05:11:11.811Z,-2.75
2022-12-18T05:13:41.367Z,-2.82
2022-12-18T05:16:12.970Z,-2.80
2022-12-18T05:18:42.172Z,-2.78
2022-12-18T05:21:11.587Z,-2.82
2022-12-18T05:23:41.150Z,-2.78
2022-12-18T05:26:11.068Z,-2.80
2022-12-18T05:28:40.062Z,-2.77
2022-12-18T05:31:09.619Z,-2.82
2022-12-18T05:33:40.673Z,-2.76
2022-12-18T05:36:12.250Z,-2.72
2022-12-18T05:38:41.939Z,-2.71
2022-12-18T05:41:11.973Z,-2.69
2022-12-18T05:43:43.233Z,-2.72
2022-12-18T05:46:15.891Z,-2.72
2022-12-18T05:48:47.014Z,-2.73
2022-12-18T05:51:19.152Z,-2.74
2022-12-18T05:53:49.189Z,-2.69
2022-12-18T05:56:20.152Z,-2.73
2022-12-18T05:58:50.419Z,-2.71
2022-12-18T06:01:23.621Z,-2.74
2022-12-18T06:03:54.543Z,-2.70
2022-12-18T06:06:26.075Z,-2.70
2022-12-18T06:08:56.321Z,-2.75
2022-12-18T06:11:28.091Z,-2.77
2022-12-18T06:13:59.446Z,-2.69
2022-12-18T06:16:30.674Z,-2.67
2022-12-18T06:19:03.879Z,-2.73
2022-12-18T06:21:34.077Z,-2.76
2022-12-18T06:24:04.252Z,-2.70
2022-12-18T06:26:33.630Z,-2.75
2022-12-18T06:29:02.881Z,-2.73
2022-12-18T06:31:32.258Z,-2.77
2022-12-18T06:34:05.293Z,-2.75
2022-12-18T06:36:34.986Z,-2.90
2022-12-18T06:39:04.053Z,-2.80
2022-12-18T06:41:33.467Z,-2.77
2022-12-18T06:44:02.516Z,-2.76
2022-12-18T06:46:33.183Z,-2.80
2022-12-18T06:49:03.718Z,-2.78
2022-12-18T06:51:33.150Z,-2.78
2022-12-18T06:54:02.384Z,-2.81
2022-12-18T06:56:31.907Z,-2.83
2022-12-18T06:59:01.023Z,-2.83
2022-12-18T07:01:30.438Z,-2.87
2022-12-18T07:03:59.943Z,-2.91
2022-12-18T07:06:30.658Z,-2.95
2022-12-18T07:08:59.779Z,-2.98
2022-12-18T07:11:29.169Z,-2.93
2022-12-18T07:13:58.223Z,-2.98
2022-12-18T07:16:29.402Z,-2.92
2022-12-18T07:18:58.707Z,-2.96
2022-12-18T07:21:29.598Z,-2.90
2022-12-18T07:23:59.320Z,-2.91
2022-12-18T07:26:28.677Z,-2.84
2022-12-18T07:28:59.254Z,-2.83
2022-12-18T07:31:29.140Z,-2.72
2022-12-18T07:33:59.258Z,-2.66
2022-12-18T07:36:30.005Z,-2.67
2022-12-18T07:38:59.106Z,-2.77
2022-12-18T07:41:28.465Z,-2.77
2022-12-18T07:43:57.508Z,-2.76
2022-12-18T07:46:26.855Z,-2.70
2022-12-18T07:48:55.947Z,-2.71
2022-12-18T07:51:25.427Z,-2.76
2022-12-18T07:53:55.883Z,-2.77
2022-12-18T07:56:28.073Z,-2.85
2022-12-18T07:58:58.106Z,-2.85
2022-12-18T08:01:27.916Z,-2.75
2022-12-18T08:03:57.252Z,-2.60
2022-12-18T08:06:26.857Z,-2.51
2022-12-18T08:08:57.853Z,-2.44
2022-12-18T08:11:29.751Z,-2.40
2022-12-18T08:13:59.897Z,-2.39
2022-12-18T08:16:29.700Z,-2.31
2022-12-18T08:18:58.849Z,-2.28
2022-12-18T08:21:29.755Z,-2.26
2022-12-18T08:24:02.544Z,-2.19
2022-12-18T08:26:33.447Z,-2.18
2022-12-18T08:29:02.960Z,-2.17
2022-12-18T08:31:33.984Z,-2.15
2022-12-18T08:34:03.273Z,-2.15
2022-12-18T08:36:32.573Z,-2.10
2022-12-18T08:39:03.229Z,-2.07
2022-12-18T08:41:32.679Z,-2.06
2022-12-18T08:44:19.470Z,-2.02
2022-12-18T08:46:48.917Z,-1.97
2022-12-18T08:49:17.897Z,-1.89
2022-12-18T08:51:47.540Z,-1.86
2022-12-18T08:54:17.923Z,-1.83
2022-12-18T08:56:47.345Z,-1.82
2022-12-18T08:59:19.705Z,-1.79
2022-12-18T09:01:50.225Z,-1.91
2022-12-18T09:04:19.454Z,-1.85
2022-12-18T09:06:48.789Z,-1.85
2022-12-18T09:09:19.465Z,-1.82
2022-12-18T09:11:48.900Z,-1.85
2022-12-18T09:14:18.151Z,-1.77
2022-12-18T09:16:47.637Z,-1.76
2022-12-18T09:19:16.747Z,-1.61
2022-12-18T09:21:48.290Z,-1.52
2022-12-18T09:24:19.407Z,-1.47
2022-12-18T09:26:49.373Z,-1.57
2022-12-18T09:29:19.957Z,-1.50
2022-12-18T09:31:50.441Z,-1.40
2022-12-18T09:34:22.059Z,-1.40
2022-12-18T09:36:53.049Z,-1.31
2022-12-18T09:39:24.288Z,-1.22
2022-12-18T09:41:56.894Z,-1.12
2022-12-18T09:44:29.562Z,-1.04
2022-12-18T09:47:09.094Z,-1.00
2022-12-18T09:49:44.083Z,-1.04
2022-12-18T09:52:19.860Z,-0.98
2022-12-18T09:54:55.816Z,-1.03
2022-12-18T09:57:26.743Z,-0.99
2022-12-18T10:00:01.259Z,-0.90
2022-12-18T10:02:41.035Z,-0.87
2022-12-18T10:05:15.383Z,-0.84
2022-12-18T10:07:54.607Z,-0.82
2022-12-18T10:10:39.897Z,-0.78
2022-12-18T10:13:17.739Z,-0.64
2022-12-18T10:16:00.696Z,-0.69
2022-12-18T10:18:41.171Z,-0.64
2022-12-18T10:21:13.475Z,-0.69
2022-12-18T10:23:49.991Z,-0.57
2022-12-18T10:26:21.122Z,-0.46
2022-12-18T10:28:51.673Z,-0.48
2022-12-18T10:31:24.556Z,-0.34
2022-12-18T10:33:55.797Z,-0.30
2022-12-18T10:36:26.608Z,-0.29
2022-12-18T10:38:55.987Z,-0.43
2022-12-18T10:41:31.915Z,-0.52
2022-12-18T10:44:18.627Z,-0.52
2022-12-18T10:46:48.939Z,-0.50
2022-12-18T10:49:27.872Z,-0.53
2022-12-18T10:52:16.116Z,-0.53
2022-12-18T10:54:51.417Z,-0.38
2022-12-18T10:57:36.781Z,-0.50
2022-12-18T11:00:37.058Z,-0.40
2022-12-18T11:03:26.695Z,-0.38
2022-12-18T11:06:05.292Z,-0.27
2022-12-18T11:08:34.913Z,-0.31
2022-12-18T11:11:04.854Z,-0.22
2022-12-18T11:13:35.704Z,-0.37
2022-12-18T11:16:05.590Z,-0.32
2022-12-18T11:18:37.063Z,-0.25
2022-12-18T11:21:10.958Z,-0.42
2022-12-18T11:23:49.428Z,-0.32
2022-12-18T11:26:19.344Z,-0.44
2022-12-18T11:28:53.877Z,-0.41
2022-12-18T11:31:29.642Z,-0.41
2022-12-18T11:37:00.627Z,-0.30
2022-12-18T11:39:38.164Z,-0.37
2022-12-18T11:42:14.653Z,-0.38
2022-12-18T11:44:52.553Z,-0.44
2022-12-18T11:47:30.713Z,-0.43
2022-12-18T11:50:04.350Z,-0.33
2022-12-18T11:52:40.225Z,-0.10
2022-12-18T11:55:16.197Z,0.07
2022-12-18T11:58:00.350Z,0.32
2022-12-18T12:00:31.302Z,0.37
2022-12-18T12:03:27.897Z,0.70
2022-12-18T12:06:11.839Z,0.77
2022-12-18T12:08:54.588Z,0.86
2022-12-18T12:11:37.448Z,0.96
2022-12-18T12:14:23.041Z,1.10
2022-12-18T12:16:59.650Z,1.37
2022-12-18T12:19:42.268Z,1.40
2022-12-18T12:22:19.071Z,1.39
2022-12-18T12:25:00.868Z,1.52
2022-12-18T12:27:40.994Z,1.59
2022-12-18T12:30:13.681Z,1.62
2022-12-18T12:33:03.634Z,1.55
2022-12-18T12:35:44.882Z,1.62
2022-12-18T12:38:17.866Z,1.62
2022-12-18T12:40:53.971Z,1.46
2022-12-18T12:43:32.722Z,1.17
2022-12-18T12:46:06.147Z,0.94
2022-12-18T12:48:46.774Z,0.71
2022-12-18T12:51:20.555Z,0.58
2022-12-18T12:53:50.776Z,0.37
2022-12-18T12:56:23.396Z,0.37
2022-12-18T12:59:02.042Z,0.23
2022-12-18T13:01:40.504Z,0.23
2022-12-18T13:04:24.107Z,0.11
2022-12-18T13:06:59.505Z,0.12
2022-12-18T13:09:34.419Z,0.05
2022-12-18T13:12:28.832Z,-0.01
2022-12-18T13:15:16.082Z,-0.12
2022-12-18T13:17:46.486Z,-0.23
2022-12-18T13:20:18.260Z,-0.32
2022-12-18T13:22:51.262Z,-0.37
2022-12-18T13:25:38.031Z,-0.43
2022-12-18T13:28:13.644Z,-0.47
2022-12-18T13:30:57.991Z,-0.53
2022-12-18T13:36:42.903Z,-0.78
2022-12-18T13:39:34.758Z,-0.79
2022-12-18T13:42:55.616Z,-0.93
2022-12-18T13:45:44.170Z,-0.98
2022-12-18T13:48:24.841Z,-1.02
2022-12-18T13:51:04.490Z,-1.09
2022-12-18T13:53:41.004Z,-1.15
2022-12-18T13:56:10.890Z,-1.18
2022-12-18T13:58:40.382Z,-1.18
2022-12-18T14:01:25.622Z,-1.20
2022-12-18T14:04:12.390Z,-1.30
2022-12-18T14:06:42.863Z,-1.34
2022-12-18T14:09:21.318Z,-1.32
2022-12-18T14:11:52.439Z,-1.43
2022-12-18T14:14:22.762Z,-1.52
2022-12-18T14:16:54.617Z,-1.62
2022-12-18T14:19:24.845Z,-1.68
2022-12-18T14:21:54.628Z,-1.77
2022-12-18T14:24:25.090Z,-1.83
2022-12-18T14:26:54.590Z,-1.90
2022-12-18T14:29:27.220Z,-1.95
2022-12-18T14:32:17.850Z,-1.95
2022-12-18T14:34:48.597Z,-1.96
2022-12-18T14:37:22.131Z,-1.93
2022-12-18T14:40:03.258Z,-1.88
2022-12-18T14:42:36.732Z,-1.89
2022-12-18T14:45:44.833Z,-1.91
2022-12-18T14:48:23.643Z,-1.95
2022-12-18T14:51:02.116Z,-1.98
2022-12-18T14:53:37.351Z,-2.04
2022-12-18T14:56:19.417Z,-2.02
2022-12-18T14:58:51.003Z,-2.04
2022-12-18T15:01:31.917Z,-2.10
2022-12-18T15:04:03.026Z,-2.10
2022-12-18T15:06:35.063Z,-2.15
2022-12-18T15:09:07.932Z,-2.19
2022-12-18T15:11:49.234Z,-2.27
2022-12-18T15:14:26.608Z,-2.34
2022-12-18T15:16:56.724Z,-2.38
2022-12-18T15:19:34.717Z,-2.37
2022-12-18T15:22:06.639Z,-2.38
2022-12-18T15:24:36.503Z,-2.51
2022-12-18T15:27:06.893Z,-2.61
2022-12-18T15:29:36.602Z,-2.59
2022-12-18T15:32:07.951Z,-2.55
2022-12-18T15:34:37.366Z,-2.56
2022-12-18T15:37:06.378Z,-2.58
2022-12-18T15:39:36.828Z,-2.55
2022-12-18T15:42:27.000Z,-2.57
2022-12-18T15:44:56.764Z,-2.57
2022-12-18T15:47:25.768Z,-2.60
2022-12-18T15:49:54.649Z,-2.67
2022-12-18T15:52:27.181Z,-2.72
2022-12-18T15:55:14.064Z,-2.86
2022-12-18T15:57:44.915Z,-2.97
2022-12-18T16:00:15.679Z,-3.02
2022-12-18T16:02:45.354Z,-3.06
2022-12-18T16:05:18.544Z,-3.02
2022-12-18T16:07:48.188Z,-3.03
2022-12-18T16:10:17.572Z,-3.05
2022-12-18T16:12:48.894Z,-3.10
2022-12-18T16:15:24.104Z,-3.10
2022-12-18T16:17:54.455Z,-3.19
2022-12-18T16:20:24.449Z,-3.30
2022-12-18T16:22:54.246Z,-3.45
2022-12-18T16:25:25.803Z,-3.52
2022-12-18T16:27:57.377Z,-3.64
2022-12-18T16:30:29.433Z,-3.69
2022-12-18T16:33:02.795Z,-3.79
2022-12-18T16:35:31.870Z,-3.88
2022-12-18T16:38:01.270Z,-3.87
2022-12-18T16:40:33.291Z,-3.92
2022-12-18T16:43:05.789Z,-4.00
2022-12-18T16:45:36.823Z,-4.04
2022-12-18T16:48:07.289Z,-4.05
2022-12-18T16:50:36.661Z,-4.08
2022-12-18T16:53:06.046Z,-4.15
2022-12-18T16:55:35.318Z,-4.22
2022-12-18T16:58:06.072Z,-4.24
2022-12-18T17:00:35.234Z,-4.27
2022-12-18T17:03:04.747Z,-4.30
2022-12-18T17:05:35.750Z,-4.36
2022-12-18T17:08:05.459Z,-4.41
2022-12-18T17:10:37.342Z,-4.47
2022-12-18T17:13:08.383Z,-4.53
2022-12-18T17:15:37.892Z,-4.61
2022-12-18T17:18:07.354Z,-4.68
2022-12-18T17:20:36.447Z,-4.77
2022-12-18T17:23:06.181Z,-4.81
2022-12-18T17:25:35.272Z,-4.85
2022-12-18T17:28:04.700Z,-4.82
2022-12-18T17:30:37.015Z,-4.82
2022-12-18T17:33:06.382Z,-4.82
2022-12-18T17:35:35.420Z,-4.83
2022-12-18T17:38:04.958Z,-4.92
2022-12-18T17:40:34.999Z,-4.98
2022-12-18T17:43:04.399Z,-5.00
2022-12-18T17:45:33.445Z,-4.99
2022-12-18T17:48:04.302Z,-5.05
2022-12-18T17:50:35.050Z,-5.11
2022-12-18T17:53:04.934Z,-5.07
2022-12-18T17:55:34.011Z,-5.09
2022-12-18T17:58:03.650Z,-5.17
2022-12-18T18:00:32.791Z,-5.19
2022-12-18T18:03:03.691Z,-5.26
2022-12-18T18:05:32.970Z,-5.22
2022-12-18T18:08:02.528Z,-5.27
2022-12-18T18:10:33.328Z,-5.23
2022-12-18T18:13:21.716Z,-5.25
2022-12-18T18:15:57.796Z,-5.28
2022-12-18T18:18:28.595Z,-5.35
2022-12-18T18:20:57.884Z,-5.41
2022-12-18T18:23:28.727Z,-5.45
2022-12-18T18:25:57.885Z,-5.46
2022-12-18T18:28:27.459Z,-5.48
2022-12-18T18:30:56.579Z,-5.52
2022-12-18T18:33:27.517Z,-5.59
2022-12-18T18:35:56.573Z,-5.63
2022-12-18T18:38:26.133Z,-5.67
2022-12-18T18:41:00.546Z,-5.73
2022-12-18T18:43:30.354Z,-5.79
2022-12-18T18:46:00.822Z,-5.82
2022-12-18T18:48:35.667Z,-5.85
2022-12-18T18:51:09.074Z,-5.86
2022-12-18T18:53:41.240Z,-5.91
2022-12-18T18:59:02.612Z,-6.01
2022-12-18T19:01:32.474Z,-5.99
2022-12-18T19:04:03.649Z,-5.96
2022-12-18T19:06:33.317Z,-5.92
2022-12-18T19:09:04.398Z,-5.87
2022-12-18T19:11:50.828Z,-5.85
2022-12-18T19:14:20.420Z,-5.86
2022-12-18T19:16:49.534Z,-5.85
2022-12-18T19:19:21.958Z,-5.85
2022-12-18T19:21:52.209Z,-5.97
2022-12-18T19:24:22.635Z,-5.97
2022-12-18T19:26:52.278Z,-5.99
2022-12-18T19:29:24.763Z,-6.01
2022-12-18T19:31:53.945Z,-6.10
2022-12-18T19:34:24.697Z,-6.17
2022-12-18T19:36:59.473Z,-6.17
2022-12-18T19:39:29.739Z,-6.26
2022-12-18T19:42:00.390Z,-6.09
2022-12-18T19:44:29.840Z,-6.09
2022-12-18T19:46:59.798Z,-6.10
2022-12-18T19:49:32.760Z,-6.13
2022-12-18T19:52:06.173Z,-6.15
2022-12-18T19:54:36.382Z,-6.19
2022-12-18T19:57:07.762Z,-6.27
2022-12-18T19:59:38.983Z,-6.33
2022-12-18T20:02:14.384Z,-6.34
2022-12-18T20:04:47.017Z,-6.39
2022-12-18T20:07:16.598Z,-6.44
2022-12-18T20:09:46.145Z,-6.50
2022-12-18T20:12:16.080Z,-6.57
2022-12-18T20:14:45.710Z,-6.57
2022-12-18T20:17:15.674Z,-6.64
2022-12-18T20:19:46.392Z,-6.70
2022-12-18T20:22:16.291Z,-6.68
2022-12-18T20:24:47.160Z,-6.78
2022-12-18T20:27:19.645Z,-6.80
2022-12-18T20:29:49.250Z,-6.71
2022-12-18T20:32:19.458Z,-6.63
2022-12-18T20:34:50.845Z,-6.60
2022-12-18T20:37:20.000Z,-6.57
2022-12-18T20:39:51.648Z,-6.56
2022-12-18T20:42:21.291Z,-6.65
2022-12-18T20:44:50.730Z,-6.67
2022-12-18T20:47:19.805Z,-6.65
2022-12-18T20:49:50.601Z,-6.60
2022-12-18T20:52:19.727Z,-6.63
2022-12-18T20:54:50.616Z,-6.66
2022-12-18T20:57:19.648Z,-6.64
2022-12-18T20:59:49.093Z,-6.67
2022-12-18T21:02:18.399Z,-6.71
2022-12-18T21:04:51.143Z,-6.75
2022-12-18T21:07:20.351Z,-6.73
2022-12-18T21:09:49.733Z,-6.75
2022-12-18T21:12:48.283Z,-6.73
2022-12-18T21:15:28.780Z,-6.70
2022-12-18T21:17:58.253Z,-6.72
2022-12-18T21:20:29.022Z,-6.74
2022-12-18T21:23:12.063Z,-6.68
2022-12-18T21:25:46.703Z,-6.65
2022-12-18T21:28:21.018Z,-6.73
2022-12-18T21:30:50.496Z,-6.75
2022-12-18T21:33:19.624Z,-6.78
2022-12-18T21:35:50.376Z,-6.85
2022-12-18T21:38:19.522Z,-6.81
2022-12-18T21:40:48.832Z,-6.75
2022-12-18T21:43:43.450Z,-6.78
2022-12-18T21:46:12.951Z,-6.88
2022-12-18T21:48:43.472Z,-6.88
2022-12-18T21:51:14.273Z,-6.86
2022-12-18T21:53:43.466Z,-6.83
2022-12-18T21:56:13.511Z,-6.84
2022-12-18T21:58:55.227Z,-6.77
2022-12-18T22:01:26.960Z,-6.69
2022-12-18T22:04:05.807Z,-6.69
2022-12-18T22:06:36.627Z,-6.73
2022-12-18T22:09:07.123Z,-6.68
2022-12-18T22:11:36.545Z,-6.70
2022-12-18T22:14:05.639Z,-6.69
2022-12-18T22:16:35.152Z,-6.67
2022-12-18T22:19:05.276Z,-6.71
2022-12-18T22:21:37.808Z,-6.79
2022-12-18T22:24:09.007Z,-6.64
2022-12-18T22:26:40.401Z,-6.58
2022-12-18T22:29:29.006Z,-6.57
2022-12-18T22:31:59.678Z,-6.54
2022-12-18T22:34:29.209Z,-6.46
2022-12-18T22:37:00.084Z,-6.41
2022-12-18T22:39:30.683Z,-6.43
2022-12-18T22:42:00.463Z,-6.40
2022-12-18T22:44:29.948Z,-6.44
2022-12-18T22:47:06.341Z,-6.42
2022-12-18T22:49:36.567Z,-6.44
2022-12-18T22:52:09.404Z,-6.35
2022-12-18T22:54:38.905Z,-6.28
2022-12-18T22:57:08.291Z,-6.20
2022-12-18T22:59:37.435Z,-6.17
2022-12-18T23:02:06.894Z,-6.12
2022-12-18T23:04:36.929Z,-6.14
2022-12-18T23:07:07.705Z,-6.15
2022-12-18T23:09:36.705Z,-6.10
2022-12-18T23:12:07.908Z,-6.01
2022-12-18T23:14:37.234Z,-6.03
2022-12-18T23:17:06.551Z,-6.05
2022-12-18T23:19:40.018Z,-6.10
2022-12-18T23:22:13.642Z,-6.09
2022-12-18T23:24:43.043Z,-6.04
2022-12-18T23:27:13.638Z,-6.07
2022-12-18T23:29:42.828Z,-6.00
2022-12-18T23:32:14.634Z,-5.92
2022-12-18T23:34:43.833Z,-5.93
2022-12-18T23:37:35.335Z,-5.89
2022-12-18T23:40:03.989Z,-5.87
2022-12-18T23:42:33.311Z,-5.93
2022-12-18T23:45:04.518Z,-5.88
2022-12-18T23:47:50.841Z,-5.87
2022-12-18T23:50:23.779Z,-6.00
2022-12-18T23:53:05.736Z,-5.97
2022-12-18T23:55:39.711Z,-6.02
2022-12-18T23:58:16.111Z,-5.91
